Time;durP1;ratioP1;P1;durP2;ratioP2;P2;SDS_P1;SDS_P2;PMS_P1;PMS_P2;Temp;Humidity;BMP_temperature;BMP_pressure;BME280_temperature;BME280_humidity;BME280_pressure;Samples;Min_cycle;Max_cycle;Signal;HPM_P1;HPM_P2
2022/04/10 00:01:02;;;;;;;48.47;27.98;;;0.40;99.90;;;;;;5115045;28;20024;-72
2022/04/10 00:03:28;;;;;;;46.63;28.27;;;0.30;99.90;;;;;;5115199;28;20047;-72
2022/04/10 00:05:54;;;;;;;63.30;34.78;;;0.30;99.90;;;;;;5116450;28;20020;-74
2022/04/10 00:08:19;;;;;;;67.50;33.95;;;0.20;99.90;;;;;;5115027;28;20020;-73
2022/04/10 00:10:45;;;;;;;59.60;32.25;;;0.20;99.90;;;;;;5116355;28;20023;-74
2022/04/10 00:13:11;;;;;;;68.30;37.30;;;0.10;99.90;;;;;;5116340;28;20034;-73
2022/04/10 00:15:37;;;;;;;78.28;38.72;;;0.10;99.90;;;;;;5116357;28;20145;-74
2022/04/10 00:18:03;;;;;;;72.78;35.47;;;0.00;99.90;;;;;;5116247;27;20524;-73
2022/04/10 00:20:29;;;;;;;63.88;30.98;;;0.00;99.90;;;;;;5114917;28;20133;-74
2022/04/10 00:22:55;;;;;;;57.90;30.30;;;-0.10;99.90;;;;;;5115992;28;20503;-74
2022/04/10 00:25:21;;;;;;;55.78;31.20;;;-0.20;99.90;;;;;;5114849;28;20115;-73
2022/04/10 00:27:48;;;;;;;49.38;29.20;;;-0.20;99.90;;;;;;5116062;28;20016;-73
2022/04/10 00:30:15;;;;;;;49.60;27.80;;;-0.20;99.90;;;;;;5115986;28;20039;-74
2022/04/10 00:32:41;;;;;;;50.60;26.80;;;-0.30;99.90;;;;;;5115612;28;20047;-72
2022/04/10 00:35:08;;;;;;;56.53;28.08;;;-0.40;99.90;;;;;;5115844;28;20020;-74
2022/04/10 00:37:34;;;;;;;49.97;27.73;;;-0.40;99.90;;;;;;5115699;28;20034;-72
2022/04/10 00:40:00;;;;;;;51.05;27.88;;;-0.40;99.90;;;;;;5114598;28;20016;-72
2022/04/10 00:42:34;;;;;;;55.33;28.35;;;-0.50;99.90;;;;;;5115627;27;20115;-73
2022/04/10 00:45:00;;;;;;;49.17;26.17;;;-0.50;99.90;;;;;;5115824;28;20023;-74
2022/04/10 00:47:26;;;;;;;53.38;27.17;;;-0.50;99.90;;;;;;5115665;28;20061;-72
2022/04/10 00:49:52;;;;;;;39.65;24.73;;;-0.40;99.90;;;;;;5113469;28;20027;-72
2022/04/10 00:52:19;;;;;;;47.35;24.77;;;-0.40;99.90;;;;;;5115683;28;20024;-72
2022/04/10 00:54:45;;;;;;;48.70;27.27;;;-0.40;99.90;;;;;;5115523;28;20072;-74
2022/04/10 00:57:11;;;;;;;53.70;26.80;;;-0.40;99.90;;;;;;5115476;28;20411;-72
2022/04/10 00:59:39;;;;;;;48.60;26.35;;;-0.30;99.90;;;;;;5115496;27;20024;-74
2022/04/10 01:02:05;;;;;;;47.22;27.98;;;-0.30;99.90;;;;;;5114084;28;20043;-72
2022/04/10 01:04:31;;;;;;;44.80;24.95;;;-0.30;99.90;;;;;;5114114;28;20030;-74
2022/04/10 01:06:59;;;;;;;49.72;28.17;;;-0.30;99.90;;;;;;5114060;28;20377;-74
2022/04/10 01:09:26;;;;;;;50.15;25.63;;;-0.30;99.90;;;;;;5115200;28;20457;-74
2022/04/10 01:11:55;;;;;;;40.60;23.35;;;-0.30;99.90;;;;;;5115237;28;20035;-72
2022/04/10 01:14:21;;;;;;;43.85;23.38;;;-0.30;99.90;;;;;;5115215;28;20024;-72
2022/04/10 01:16:47;;;;;;;43.75;25.23;;;-0.30;99.90;;;;;;5113757;28;20525;-73
2022/04/10 01:19:13;;;;;;;44.20;24.55;;;-0.40;99.90;;;;;;5115022;28;20068;-74
2022/04/10 01:21:42;;;;;;;41.30;22.65;;;-0.40;99.90;;;;;;5113592;28;20031;-74
2022/04/10 01:24:11;;;;;;;43.33;21.15;;;-0.40;99.90;;;;;;5113618;28;20106;-74
2022/04/10 01:26:37;;;;;;;45.85;23.83;;;-0.50;99.90;;;;;;5115055;28;20080;-72
2022/04/10 01:29:03;;;;;;;42.97;25.25;;;-0.40;99.90;;;;;;5114942;28;20096;-73
2022/04/10 01:31:30;;;;;;;37.72;21.17;;;-0.50;99.90;;;;;;5114590;28;20016;-73
2022/04/10 01:33:59;;;;;;;30.08;19.25;;;-0.50;99.90;;;;;;5113609;28;20032;-73
2022/04/10 01:36:26;;;;;;;35.42;17.83;;;-0.50;99.90;;;;;;5113431;28;20477;-74
2022/04/10 01:38:57;;;;;;;31.20;17.70;;;-0.60;99.90;;;;;;5114726;28;20032;-73
2022/04/10 01:41:25;;;;;;;28.50;16.10;;;-0.50;99.90;;;;;;5114517;28;20036;-74
2022/04/10 01:43:52;;;;;;;29.15;15.68;;;-0.60;99.90;;;;;;5114627;28;20018;-72
2022/04/10 01:46:18;;;;;;;33.40;16.05;;;-0.60;99.90;;;;;;5114400;28;20050;-74
2022/04/10 01:48:44;;;;;;;31.08;17.02;;;-0.60;99.90;;;;;;5114640;28;20488;-74
2022/04/10 01:51:09;;;;;;;30.60;16.05;;;-0.60;99.90;;;;;;5114455;28;20020;-73
2022/04/10 01:53:36;;;;;;;28.50;16.20;;;-0.70;99.90;;;;;;5113152;28;20506;-73
2022/04/10 01:56:05;;;;;;;34.17;17.88;;;-0.70;99.90;;;;;;5114015;28;20106;-72
2022/04/10 01:58:33;;;;;;;27.58;15.48;;;-0.80;99.90;;;;;;5114300;28;20015;-74
2022/04/10 02:01:02;;;;;;;27.98;15.23;;;-0.80;99.90;;;;;;5114192;28;20064;-72
2022/04/10 02:03:27;;;;;;;32.13;18.38;;;-0.90;99.90;;;;;;5112857;28;20032;-73
2022/04/10 02:05:53;;;;;;;39.53;20.88;;;-1.00;99.90;;;;;;5114051;27;20113;-72
2022/04/10 02:08:18;;;;;;;48.00;24.50;;;-1.10;99.90;;;;;;5112928;28;20496;-74
2022/04/10 02:10:44;;;;;;;45.10;23.85;;;-1.10;99.90;;;;;;5114200;28;20073;-73
2022/04/10 02:13:10;;;;;;;39.20;21.05;;;-1.20;99.90;;;;;;5114031;28;20039;-73
2022/04/10 02:15:39;;;;;;;45.45;23.15;;;-1.20;99.90;;;;;;5113964;28;20031;-73
2022/04/10 02:18:06;;;;;;;44.03;23.98;;;-1.20;99.90;;;;;;5113969;28;20041;-72
2022/04/10 02:20:32;;;;;;;46.08;22.60;;;-1.30;99.90;;;;;;5114030;28;20037;-74
2022/04/10 02:22:57;;;;;;;45.33;22.85;;;-1.20;99.90;;;;;;5112518;28;20555;-74
2022/04/10 02:25:23;;;;;;;45.75;23.88;;;-1.20;99.90;;;;;;5113814;28;20030;-74
2022/04/10 02:27:48;;;;;;;42.67;21.90;;;-1.20;99.90;;;;;;5113859;28;20024;-71
2022/04/10 02:30:14;;;;;;;40.97;23.98;;;-1.30;99.90;;;;;;5113803;28;20024;-73
2022/04/10 02:32:40;;;;;;;36.97;20.70;;;-1.30;99.90;;;;;;5113556;28;20059;-74
2022/04/10 02:35:07;;;;;;;40.58;22.20;;;-1.30;99.90;;;;;;5113754;28;20024;-72
2022/04/10 02:37:33;;;;;;;44.92;25.65;;;-1.40;99.90;;;;;;5113534;28;20053;-74
2022/04/10 02:39:59;;;;;;;46.42;23.15;;;-1.40;99.90;;;;;;5113796;28;20019;-73
2022/04/10 02:42:24;;;;;;;44.38;23.75;;;-1.40;99.90;;;;;;5113546;28;20032;-74
2022/04/10 02:44:50;;;;;;;41.17;22.58;;;-1.40;99.90;;;;;;5112489;28;20024;-74
2022/04/10 02:47:15;;;;;;;41.47;22.40;;;-1.50;99.90;;;;;;5113694;28;20027;-74
2022/04/10 02:49:41;;;;;;;42.38;21.98;;;-1.40;99.90;;;;;;5113738;28;20362;-74
2022/04/10 02:52:07;;;;;;;41.97;22.55;;;-1.50;99.90;;;;;;5112274;28;20024;-71
2022/04/10 02:54:32;;;;;;;43.88;22.77;;;-1.50;99.90;;;;;;5113442;28;20024;-74
2022/04/10 02:56:58;;;;;;;38.90;22.95;;;-1.50;99.90;;;;;;5113491;28;20440;-73
2022/04/10 02:59:23;;;;;;;41.42;23.00;;;-1.50;99.90;;;;;;5113627;28;20024;-71
2022/04/10 03:01:50;;;;;;;45.42;22.98;;;-1.50;99.90;;;;;;5113334;28;20481;-71
2022/04/10 03:04:16;;;;;;;40.08;21.27;;;-1.50;99.90;;;;;;5113675;28;20016;-73
2022/04/10 03:06:42;;;;;;;45.20;22.60;;;-1.60;99.90;;;;;;5113454;28;20031;-71
2022/04/10 03:09:07;;;;;;;45.42;25.05;;;-1.60;99.90;;;;;;5112390;28;20076;-71
2022/04/10 03:11:33;;;;;;;56.22;27.17;;;-1.50;99.90;;;;;;5112092;28;20016;-73
2022/04/10 03:13:59;;;;;;;50.80;24.40;;;-1.60;99.90;;;;;;5115815;28;20024;-74
2022/04/10 03:16:24;;;;;;;46.35;23.67;;;-1.60;99.90;;;;;;5117478;28;20023;-71
2022/04/10 03:18:51;;;;;;;41.25;22.70;;;-1.70;99.90;;;;;;5117464;28;20032;-74
2022/04/10 03:21:17;;;;;;;46.80;23.20;;;-1.70;99.90;;;;;;5117267;28;20487;-74
2022/04/10 03:23:43;;;;;;;58.03;29.98;;;-1.70;99.90;;;;;;5117288;28;20473;-72
2022/04/10 03:26:09;;;;;;;77.93;34.15;;;-1.80;99.90;;;;;;5116005;28;20069;-74
2022/04/10 03:28:35;;;;;;;69.30;28.17;;;-1.80;99.90;;;;;;5117290;28;20437;-73
2022/04/10 03:31:00;;;;;;;63.47;27.13;;;-1.80;99.90;;;;;;5117226;28;20024;-73
2022/04/10 03:33:26;;;;;;;63.72;28.35;;;-1.90;99.90;;;;;;5116990;28;20040;-73
2022/04/10 03:35:55;;;;;;;55.80;26.52;;;-2.00;99.90;;;;;;5117068;28;20542;-74
2022/04/10 03:38:21;;;;;;;61.67;28.48;;;-2.00;99.90;;;;;;5115837;28;20118;-74
2022/04/10 03:40:47;;;;;;;80.75;32.80;;;-2.00;99.90;;;;;;5117066;28;20026;-74
2022/04/10 03:43:12;;;;;;;65.32;27.00;;;-2.00;99.90;;;;;;5116945;28;20031;-74
2022/04/10 03:45:38;;;;;;;68.82;31.10;;;-2.00;99.90;;;;;;5116936;28;20051;-72
2022/04/10 03:48:08;;;;;;;75.57;32.20;;;-1.90;99.90;;;;;;5116837;28;20103;-74
2022/04/10 03:50:35;;;;;;;64.32;28.30;;;-1.90;99.90;;;;;;5116880;28;20015;-74
2022/04/10 03:53:02;;;;;;;58.13;29.10;;;-1.90;99.90;;;;;;5116849;28;20035;-71
2022/04/10 03:55:27;;;;;;;55.65;27.40;;;-1.90;99.90;;;;;;5116743;28;20024;-74
2022/04/10 03:57:53;;;;;;;56.75;26.30;;;-2.00;99.90;;;;;;5116668;28;20034;-72
2022/04/10 04:00:19;;;;;;;58.88;28.13;;;-2.00;99.90;;;;;;5116624;28;20028;-72
2022/04/10 04:02:45;;;;;;;56.00;25.45;;;-2.00;99.90;;;;;;5116470;28;20031;-74
2022/04/10 04:05:11;;;;;;;49.83;27.45;;;-1.90;99.90;;;;;;5115218;28;20024;-73
2022/04/10 04:07:37;;;;;;;57.78;28.80;;;-1.90;99.90;;;;;;5115231;28;20058;-72
2022/04/10 04:10:03;;;;;;;54.25;27.23;;;-1.90;99.90;;;;;;5116412;28;20024;-72
2022/04/10 04:12:29;;;;;;;58.88;28.60;;;-1.90;99.90;;;;;;5116363;28;20020;-72
2022/04/10 04:14:55;;;;;;;57.83;29.08;;;-1.80;99.90;;;;;;5116277;28;20428;-74
2022/04/10 04:17:20;;;;;;;67.45;32.08;;;-1.80;99.90;;;;;;5116297;28;20055;-73
2022/04/10 04:19:49;;;;;;;64.55;31.15;;;-1.80;99.90;;;;;;5115018;28;20019;-72
2022/04/10 04:22:15;;;;;;;66.20;32.95;;;-1.80;99.90;;;;;;5116048;28;20123;-72
2022/04/10 04:24:41;;;;;;;210.15;93.22;;;-1.80;99.90;;;;;;5115010;28;20028;-72
2022/04/10 04:27:07;;;;;;;73.00;34.60;;;-1.90;99.90;;;;;;5116131;28;20031;-75
2022/04/10 04:29:32;;;;;;;62.53;28.98;;;-1.90;99.90;;;;;;5116045;28;20038;-72
2022/04/10 04:31:58;;;;;;;56.55;26.58;;;-1.90;99.90;;;;;;5116121;28;20493;-74
2022/04/10 04:34:23;;;;;;;54.08;27.10;;;-1.90;99.90;;;;;;5114787;28;20104;-74
2022/04/10 04:36:49;;;;;;;55.88;26.67;;;-1.90;99.90;;;;;;5115969;28;20473;-74
2022/04/10 04:39:14;;;;;;;48.30;24.77;;;-1.90;99.90;;;;;;5114455;28;20031;-72
2022/04/10 04:41:40;;;;;;;55.67;27.02;;;-1.80;99.90;;;;;;5115741;28;20381;-74
2022/04/10 04:44:06;;;;;;;62.25;30.70;;;-1.70;99.90;;;;;;5115894;27;20058;-71
2022/04/10 04:46:31;;;;;;;62.33;31.42;;;-1.70;99.90;;;;;;5114199;28;20034;-74
2022/04/10 04:48:57;;;;;;;70.28;35.90;;;-1.60;99.90;;;;;;5114433;28;20086;-73
2022/04/10 04:51:22;;;;;;;68.40;33.42;;;-1.60;99.90;;;;;;5115647;28;20024;-72
2022/04/10 04:53:48;;;;;;;70.97;33.42;;;-1.50;99.90;;;;;;5114395;28;20469;-73
2022/04/10 04:56:14;;;;;;;59.20;29.20;;;-1.50;99.90;;;;;;5113539;28;20106;-74
2022/04/10 04:58:39;;;;;;;57.45;29.40;;;-1.50;99.90;;;;;;5114315;28;20042;-72
2022/04/10 05:01:05;;;;;;;61.92;31.10;;;-1.40;99.90;;;;;;5115220;28;20553;-72
2022/04/10 05:03:30;;;;;;;56.50;29.00;;;-1.30;99.90;;;;;;5114153;28;20443;-74
2022/04/10 05:05:56;;;;;;;60.33;27.95;;;-1.20;99.90;;;;;;5115323;28;20028;-72
2022/04/10 05:08:21;;;;;;;55.90;30.88;;;-1.10;99.90;;;;;;5115568;28;20024;-73
2022/04/10 05:10:47;;;;;;;49.67;27.55;;;-1.00;99.90;;;;;;5115293;28;20039;-74
2022/04/10 05:13:12;;;;;;;61.58;32.03;;;-0.90;99.90;;;;;;5114781;28;20028;-74
2022/04/10 05:15:38;;;;;;;106.82;55.10;;;-0.80;99.90;;;;;;5111705;28;20023;-75
2022/04/10 05:18:04;;;;;;;187.55;84.75;;;-0.70;99.90;;;;;;5114447;28;20031;-73
2022/04/10 05:20:29;;;;;;;160.10;67.13;;;-0.70;99.90;;;;;;5114202;28;20099;-73
2022/04/10 05:22:56;;;;;;;167.38;71.10;;;-0.60;99.90;;;;;;5114346;28;20028;-74
2022/04/10 05:25:22;;;;;;;126.18;57.38;;;-0.50;99.90;;;;;;5114318;28;20058;-74
2022/04/10 05:27:48;;;;;;;139.70;55.83;;;-0.50;99.90;;;;;;5114389;28;20011;-74
2022/04/10 05:30:13;;;;;;;106.57;46.88;;;-0.40;99.90;;;;;;5113073;28;20022;-73
2022/04/10 05:32:42;;;;;;;77.82;39.78;;;-0.30;99.90;;;;;;5112727;28;20031;-74
2022/04/10 05:35:09;;;;;;;75.43;33.47;;;-0.20;99.90;;;;;;5114039;28;20478;-74
2022/04/10 05:37:35;;;;;;;70.65;31.77;;;-0.20;99.90;;;;;;5114098;28;20031;-73
2022/04/10 05:40:02;;;;;;;108.00;41.72;;;-0.10;99.90;;;;;;5112954;28;20061;-72
2022/04/10 05:42:28;;;;;;;106.15;44.35;;;0.00;99.90;;;;;;5114104;28;20039;-72
2022/04/10 05:45:03;;;;;;;188.00;85.15;;;0.10;99.90;;;;;;5114121;28;20465;-74
2022/04/10 05:47:29;;;;;;;238.20;83.53;;;0.10;99.90;;;;;;5111155;28;20473;-74
2022/04/10 05:49:55;;;;;;;233.90;75.22;;;0.20;99.90;;;;;;5114015;28;20034;-72
2022/04/10 05:52:20;;;;;;;136.63;48.95;;;0.30;99.90;;;;;;5111138;28;20071;-74
2022/04/10 05:54:46;;;;;;;146.63;55.40;;;0.30;99.90;;;;;;5114137;28;20103;-73
2022/04/10 05:57:11;;;;;;;200.73;86.38;;;0.40;99.90;;;;;;5112722;28;20028;-72
2022/04/10 05:59:37;;;;;;;88.90;45.45;;;0.50;99.90;;;;;;5112710;28;20027;-72
2022/04/10 06:02:02;;;;;;;58.63;29.77;;;0.60;99.90;;;;;;5113680;28;20032;-74
2022/04/10 06:04:28;;;;;;;68.05;31.08;;;0.60;99.90;;;;;;5113836;28;20051;-74
2022/04/10 06:06:53;;;;;;;92.65;40.05;;;0.70;99.90;;;;;;5113715;27;20023;-74
2022/04/10 06:09:19;;;;;;;78.82;34.67;;;0.70;99.90;;;;;;5113752;28;20012;-72
2022/04/10 06:11:44;;;;;;;77.20;37.90;;;0.80;99.90;;;;;;5112315;28;20024;-74
2022/04/10 06:14:10;;;;;;;72.90;36.25;;;0.80;99.90;;;;;;5113587;28;20031;-74
2022/04/10 06:16:36;;;;;;;61.55;34.50;;;0.90;99.90;;;;;;5113410;28;20061;-74
2022/04/10 06:19:01;;;;;;;56.25;31.55;;;1.00;99.90;;;;;;5113429;28;20020;-74
2022/04/10 06:21:27;;;;;;;47.55;27.60;;;1.00;99.90;;;;;;5113315;28;20007;-74
2022/04/10 06:23:52;;;;;;;49.35;27.30;;;1.00;99.90;;;;;;5111979;28;20023;-74
2022/04/10 06:26:18;;;;;;;46.10;28.02;;;1.10;99.90;;;;;;5113368;28;20024;-74
2022/04/10 06:28:44;;;;;;;50.75;27.20;;;1.10;99.90;;;;;;5113310;28;20016;-74
2022/04/10 06:31:09;;;;;;;48.28;27.65;;;1.20;99.90;;;;;;5113496;28;20576;-72
2022/04/10 06:33:35;;;;;;;43.90;26.70;;;1.30;99.90;;;;;;5113661;28;20043;-72
2022/04/10 06:36:01;;;;;;;73.60;36.75;;;1.20;99.90;;;;;;5112314;28;20027;-72
2022/04/10 06:38:26;;;;;;;60.38;35.25;;;1.30;99.90;;;;;;5113656;28;20024;-74
2022/04/10 06:40:52;;;;;;;45.45;24.42;;;1.30;99.90;;;;;;5112308;28;20119;-72
2022/04/10 06:43:20;;;;;;;44.35;21.38;;;1.30;99.90;;;;;;5108887;28;20593;-73
2022/04/10 06:45:46;;;;;;;37.13;20.98;;;1.20;99.90;;;;;;5109292;28;20065;-73
2022/04/10 06:48:12;;;;;;;24.52;15.73;;;1.30;99.90;;;;;;5110584;28;20027;-73
2022/04/10 06:50:37;;;;;;;26.95;15.00;;;1.30;99.90;;;;;;5113029;28;20034;-72
2022/04/10 06:53:03;;;;;;;23.35;12.48;;;1.40;99.90;;;;;;5113193;28;20481;-72
2022/04/10 06:55:30;;;;;;;39.15;17.25;;;1.40;99.90;;;;;;5113494;28;20020;-73
2022/04/10 06:57:56;;;;;;;25.30;14.52;;;1.50;99.90;;;;;;5113382;28;20049;-72
2022/04/10 07:00:22;;;;;;;20.52;12.75;;;1.50;99.90;;;;;;5113626;28;20031;-74
2022/04/10 07:02:48;;;;;;;22.83;13.00;;;1.60;99.90;;;;;;5113355;28;20503;-74
2022/04/10 07:05:14;;;;;;;22.65;13.00;;;1.60;99.90;;;;;;5112142;28;20020;-73
2022/04/10 07:07:40;;;;;;;23.02;12.45;;;1.70;99.90;;;;;;5113370;28;20020;-74
2022/04/10 07:10:05;;;;;;;32.45;16.80;;;1.80;99.90;;;;;;5110654;28;20027;-74
2022/04/10 07:12:31;;;;;;;21.70;12.85;;;1.80;99.90;;;;;;5112687;28;20512;-74
2022/04/10 07:15:01;;;;;;;23.17;12.55;;;1.90;99.90;;;;;;5111246;28;20016;-74
2022/04/10 07:17:27;;;;;;;23.38;11.70;;;1.90;99.90;;;;;;5111419;28;20027;-74
2022/04/10 07:19:53;;;;;;;18.40;12.10;;;1.90;99.90;;;;;;5112513;28;20024;-74
2022/04/10 07:25:03;;;;;;;20.30;11.13;;;2.00;99.90;;;;;;5112948;28;20035;-72
2022/04/10 07:27:29;;;;;;;21.95;11.65;;;2.10;99.90;;;;;;5111556;28;20020;-74
2022/04/10 07:29:55;;;;;;;20.65;12.25;;;2.20;99.90;;;;;;5108650;28;20027;-73
2022/04/10 07:32:20;;;;;;;22.33;12.57;;;2.20;99.90;;;;;;5110109;28;20520;-72
2022/04/10 07:34:46;;;;;;;28.88;13.77;;;2.30;99.90;;;;;;5110631;28;20478;-74
2022/04/10 07:37:11;;;;;;;25.88;11.55;;;2.30;99.90;;;;;;5112171;28;20055;-74
2022/04/10 07:39:37;;;;;;;17.27;10.48;;;2.40;99.90;;;;;;5112031;28;20024;-74
2022/04/10 07:42:03;;;;;;;19.15;9.93;;;2.40;99.90;;;;;;5112200;28;20040;-73
2022/04/10 07:44:29;;;;;;;15.32;9.95;;;2.40;99.90;;;;;;5112514;28;20023;-73
2022/04/10 07:47:30;;;;;;;19.25;10.88;;;2.40;99.90;;;;;;5112573;28;20167;-72
2022/04/10 07:49:47;;;;;;;19.73;9.38;;;2.50;99.90;;;;;;5111452;28;20061;-73
2022/04/10 07:52:13;;;;;;;12.45;9.38;;;2.50;99.90;;;;;;5111661;28;20381;-74
2022/04/10 07:54:39;;;;;;;13.68;9.38;;;2.50;99.90;;;;;;5112850;28;20061;-73
2022/04/10 07:57:05;;;;;;;16.48;9.00;;;2.50;99.90;;;;;;5112118;28;20487;-74
2022/04/10 07:59:30;;;;;;;16.45;10.85;;;2.60;99.90;;;;;;5112451;28;20054;-75
2022/04/10 08:01:56;;;;;;;15.63;10.68;;;2.60;99.90;;;;;;5113586;28;20461;-73
2022/04/10 08:04:22;;;;;;;16.17;9.88;;;2.70;99.90;;;;;;5113432;28;20023;-74
2022/04/10 08:06:47;;;;;;;15.07;9.13;;;2.70;99.90;;;;;;5114751;28;20363;-74
2022/04/10 08:09:13;;;;;;;15.02;9.25;;;2.70;99.90;;;;;;5116186;28;20496;-74
2022/04/10 08:11:39;;;;;;;11.20;8.27;;;2.80;99.90;;;;;;5115860;28;20073;-73
2022/04/10 08:14:05;;;;;;;15.02;8.80;;;2.90;99.90;;;;;;5114445;28;20060;-74
2022/04/10 08:16:31;;;;;;;12.25;8.07;;;3.00;99.90;;;;;;5113655;28;20020;-74
2022/04/10 08:18:56;;;;;;;12.13;7.80;;;3.20;99.90;;;;;;5111897;28;20028;-74
2022/04/10 08:21:22;;;;;;;13.88;8.23;;;3.40;99.90;;;;;;5112288;28;20505;-73
2022/04/10 08:23:47;;;;;;;8.15;6.82;;;3.60;99.90;;;;;;5113393;28;20026;-73
2022/04/10 08:26:13;;;;;;;15.07;7.90;;;3.80;99.90;;;;;;5113194;28;20055;-73
2022/04/10 08:28:39;;;;;;;14.52;7.28;;;3.90;99.90;;;;;;5111864;28;20020;-74
2022/04/10 08:31:05;;;;;;;17.50;9.00;;;4.00;99.90;;;;;;5113532;28;20065;-73
2022/04/10 08:33:30;;;;;;;10.57;6.47;;;4.20;99.90;;;;;;5115314;28;20447;-74
2022/04/10 08:35:56;;;;;;;9.07;4.75;;;4.20;97.10;;;;;;5114531;28;20058;-73
2022/04/10 08:38:22;;;;;;;9.65;5.05;;;4.10;90.20;;;;;;5114641;28;20114;-74
2022/04/10 08:40:50;;;;;;;8.05;5.35;;;4.00;91.00;;;;;;5114953;28;20393;-73
2022/04/10 08:43:18;;;;;;;8.95;5.25;;;4.00;92.90;;;;;;5115238;28;20114;-74
2022/04/10 08:45:44;;;;;;;8.57;4.65;;;4.00;93.50;;;;;;5114458;28;20023;-73
2022/04/10 08:48:11;;;;;;;8.38;4.55;;;4.00;93.50;;;;;;5115418;28;20024;-74
2022/04/10 08:50:38;;;;;;;9.05;4.82;;;4.10;93.60;;;;;;5115296;28;20019;-73
2022/04/10 08:53:04;;;;;;;7.13;4.75;;;4.30;93.20;;;;;;5115499;28;20024;-73
2022/04/10 08:55:30;;;;;;;7.45;3.70;;;4.30;91.00;;;;;;5115101;28;20019;-73
2022/04/10 08:57:55;;;;;;;8.82;4.15;;;4.10;83.70;;;;;;5114971;27;20460;-73
2022/04/10 09:00:23;;;;;;;7.47;4.13;;;4.10;81.50;;;;;;5113764;28;20457;-73
2022/04/10 09:02:50;;;;;;;5.93;2.90;;;4.10;80.00;;;;;;5114370;28;20519;-74
2022/04/10 09:05:21;;;;;;;6.93;3.80;;;4.20;81.10;;;;;;5115001;28;20060;-74
2022/04/10 09:08:16;;;;;;;6.70;3.53;;;4.70;74.70;;;;;;5115029;28;20076;-74
2022/04/10 09:11:04;;;;;;;13.00;7.57;;;5.10;71.90;;;;;;5114257;28;20024;-74
2022/04/10 09:13:35;;;;;;;39.08;17.30;;;5.20;71.90;;;;;;5114899;28;20028;-74
2022/04/10 09:16:11;;;;;;;27.02;11.75;;;5.00;68.20;;;;;;5114676;28;20426;-73
2022/04/10 09:18:50;;;;;;;21.02;10.18;;;4.90;69.90;;;;;;5114722;28;20031;-74
2022/04/10 09:21:17;;;;;;;6.35;4.57;;;4.90;68.90;;;;;;5112920;28;20024;-73
2022/04/10 09:23:51;;;;;;;34.58;14.52;;;4.90;68.70;;;;;;5114417;28;20031;-73
2022/04/10 09:26:16;;;;;;;17.90;13.95;;;5.10;68.10;;;;;;5113292;28;20027;-73
2022/04/10 09:28:44;;;;;;;59.55;28.98;;;5.40;67.80;;;;;;5114473;28;20427;-74
2022/04/10 09:31:33;;;;;;;22.73;15.60;;;5.40;67.30;;;;;;5114192;28;20015;-73
2022/04/10 09:34:04;;;;;;;21.08;9.85;;;5.40;66.90;;;;;;5113420;28;20122;-74
2022/04/10 09:36:30;;;;;;;166.82;66.60;;;5.30;67.20;;;;;;5114312;28;20047;-74
2022/04/10 09:38:57;;;;;;;450.08;176.63;;;5.20;67.40;;;;;;5114222;28;20130;-74
2022/04/10 09:41:22;;;;;;;340.02;127.20;;;5.20;68.10;;;;;;5113805;28;20062;-73
2022/04/10 09:43:48;;;;;;;301.80;122.32;;;5.00;68.50;;;;;;5112750;28;20137;-74
2022/04/10 09:46:14;;;;;;;198.13;79.97;;;5.00;71.60;;;;;;5110953;28;20020;-74
2022/04/10 09:48:39;;;;;;;495.70;209.27;;;5.10;72.20;;;;;;5111985;28;20026;-74
2022/04/10 09:51:05;;;;;;;187.07;86.68;;;5.60;73.90;;;;;;5111956;28;20026;-73
2022/04/10 09:53:33;;;;;;;30.17;14.48;;;5.90;72.30;;;;;;5111951;28;20564;-74
2022/04/10 09:56:03;;;;;;;198.60;81.53;;;6.30;71.90;;;;;;5111982;28;20526;-74
2022/04/10 09:58:30;;;;;;;94.18;37.95;;;6.50;68.30;;;;;;5111919;28;20015;-74
2022/04/10 10:00:57;;;;;;;28.90;10.68;;;6.50;70.80;;;;;;5112225;28;20028;-74
2022/04/10 10:03:36;;;;;;;11.20;4.85;;;6.30;66.50;;;;;;5112237;28;20042;-73
2022/04/10 10:06:03;;;;;;;6.47;3.83;;;6.00;67.30;;;;;;5113773;28;20015;-73
2022/04/10 10:08:29;;;;;;;10.35;5.40;;;5.30;73.30;;;;;;5113707;28;20024;-74
2022/04/10 10:10:56;;;;;;;15.13;7.88;;;4.80;80.40;;;;;;5112345;28;20023;-74
2022/04/10 10:13:26;;;;;;;48.58;22.00;;;4.50;84.50;;;;;;5113451;28;20466;-73
2022/04/10 10:15:53;;;;;;;32.28;15.00;;;4.40;90.50;;;;;;5112310;28;20028;-74
2022/04/10 10:18:19;;;;;;;20.23;10.98;;;4.30;94.20;;;;;;5112373;28;20026;-73
2022/04/10 10:20:47;;;;;;;93.85;49.33;;;4.20;94.60;;;;;;5113338;28;20027;-74
2022/04/10 10:23:14;;;;;;;101.63;59.20;;;4.10;95.20;;;;;;5110865;28;20492;-74
2022/04/10 10:25:46;;;;;;;51.05;27.98;;;4.10;97.40;;;;;;5112203;28;20024;-74
2022/04/10 10:28:30;;;;;;;19.65;11.88;;;4.10;99.20;;;;;;5113371;28;20031;-74
2022/04/10 10:31:24;;;;;;;21.40;12.68;;;4.20;97.90;;;;;;5112016;28;20123;-74
2022/04/10 10:33:57;;;;;;;30.83;17.52;;;4.40;97.30;;;;;;5113176;28;20523;-74
2022/04/10 10:36:26;;;;;;;29.60;13.40;;;4.60;96.50;;;;;;5112058;28;20490;-74
2022/04/10 10:38:53;;;;;;;18.25;9.15;;;4.70;93.20;;;;;;5111942;28;20020;-75
2022/04/10 10:41:18;;;;;;;21.33;12.07;;;4.80;88.30;;;;;;5111888;28;20024;-72
2022/04/10 10:43:45;;;;;;;14.63;8.82;;;4.70;81.10;;;;;;5113219;28;20369;-73
2022/04/10 10:46:28;;;;;;;22.60;10.10;;;4.70;88.20;;;;;;5113286;28;20019;-74
2022/04/10 10:49:14;;;;;;;;;;;4.30;99.80;;;;;;5112376;28;20026;-72
2022/04/10 10:51:50;;;;;;;16.02;9.13;;;4.00;99.90;;;;;;5113184;28;19911;-73
2022/04/10 10:54:28;;;;;;;19.35;9.38;;;3.80;99.90;;;;;;5111587;28;20053;-72
2022/04/10 10:56:54;;;;;;;17.95;9.05;;;3.70;99.90;;;;;;5113092;28;20492;-72
2022/04/10 10:59:32;;;;;;;11.98;7.13;;;3.70;99.90;;;;;;5113026;28;20019;-72
2022/04/10 11:01:57;;;;;;;11.80;6.35;;;3.80;99.90;;;;;;5112942;28;20136;-73
2022/04/10 11:04:28;;;;;;;25.00;11.68;;;4.00;99.90;;;;;;5112628;28;20492;-73
2022/04/10 11:06:54;;;;;;;8.80;5.32;;;4.30;99.90;;;;;;5111495;28;20477;-73
2022/04/10 11:09:28;;;;;;;20.65;15.40;;;4.50;87.40;;;;;;5112904;28;20024;-73
2022/04/10 11:11:57;;;;;;;8.68;6.45;;;4.70;80.30;;;;;;5111471;28;20024;-73
2022/04/10 11:14:40;;;;;;;5.95;3.85;;;4.90;80.70;;;;;;5110981;28;20469;-74
2022/04/10 11:17:19;;;;;;;7.10;3.85;;;5.40;83.90;;;;;;5112941;28;20027;-72
2022/04/10 11:19:48;;;;;;;5.65;4.68;;;5.70;83.30;;;;;;5112888;28;20499;-73
2022/04/10 11:22:19;;;;;;;8.45;3.95;;;5.90;79.30;;;;;;5112731;28;20036;-73
2022/04/10 11:24:45;;;;;;;9.80;4.38;;;5.90;75.00;;;;;;5111231;28;20024;-73
2022/04/10 11:27:14;;;;;;;7.07;3.47;;;6.10;75.00;;;;;;5112919;28;20107;-73
2022/04/10 11:30:00;;;;;;;6.57;3.40;;;5.90;70.60;;;;;;5111542;28;20065;-74
2022/04/10 11:32:43;;;;;;;9.07;3.50;;;6.00;72.20;;;;;;5112026;28;20048;-73
2022/04/10 11:35:17;;;;;;;12.60;5.63;;;5.70;68.80;;;;;;5115986;28;20027;-73
2022/04/10 11:37:46;;;;;;;16.77;7.93;;;5.70;72.50;;;;;;5116442;28;20434;-73
2022/04/10 11:40:12;;;;;;;8.05;4.10;;;5.50;69.20;;;;;;5116565;28;20027;-73
2022/04/10 11:42:38;;;;;;;6.18;3.55;;;5.70;74.50;;;;;;5116215;28;20035;-73
2022/04/10 11:45:04;;;;;;;9.45;5.47;;;5.80;73.00;;;;;;5114873;28;20015;-73
2022/04/10 11:47:31;;;;;;;8.95;5.00;;;5.90;74.10;;;;;;5116013;28;20069;-74
2022/04/10 11:49:58;;;;;;;17.20;14.73;;;5.80;70.40;;;;;;5116328;28;20107;-74
2022/04/10 11:52:23;;;;;;;12.38;11.07;;;5.70;69.50;;;;;;5114797;28;20381;-73
2022/04/10 11:54:52;;;;;;;13.25;6.38;;;5.60;68.50;;;;;;5116019;28;20032;-74
2022/04/10 11:57:19;;;;;;;12.25;5.78;;;5.70;69.20;;;;;;5097241;28;20036;-73
2022/04/10 11:59:44;;;;;;;13.65;7.38;;;5.80;67.60;;;;;;5094767;28;20105;-74
2022/04/10 12:02:11;;;;;;;8.48;3.78;;;5.90;68.50;;;;;;5108846;27;20059;-74
2022/04/10 12:04:39;;;;;;;8.38;4.07;;;6.00;67.50;;;;;;5114881;28;20377;-74
2022/04/10 12:07:17;;;;;;;8.73;4.10;;;6.20;70.30;;;;;;5113719;28;20031;-73
2022/04/10 12:09:45;;;;;;;5.45;3.45;;;6.40;68.00;;;;;;5112287;28;20039;-73
2022/04/10 12:12:11;;;;;;;8.95;4.38;;;6.40;64.80;;;;;;5095315;28;20103;-74
2022/04/10 12:14:38;;;;;;;7.82;5.03;;;6.60;66.60;;;;;;5099704;28;20024;-74
2022/04/10 12:17:09;;;;;;;4.00;3.03;;;6.60;63.50;;;;;;5111948;28;20476;-74
2022/04/10 12:19:36;;;;;;;7.93;3.85;;;6.60;63.30;;;;;;5115732;28;20019;-74
2022/04/10 12:22:07;;;;;;;5.93;3.30;;;6.40;62.10;;;;;;5114268;28;20024;-73
2022/04/10 12:24:34;;;;;;;5.03;3.03;;;6.40;61.60;;;;;;5115406;28;20024;-73
2022/04/10 12:27:03;;;;;;;5.68;3.55;;;6.50;62.90;;;;;;5115405;28;20020;-73
2022/04/10 12:29:30;;;;;;;4.72;3.00;;;6.50;62.70;;;;;;5115568;28;20012;-74
2022/04/10 12:31:57;;;;;;;5.43;3.95;;;6.40;61.30;;;;;;5114780;28;20496;-74
2022/04/10 12:34:23;;;;;;;6.38;3.03;;;6.60;61.50;;;;;;5113767;28;20491;-74
2022/04/10 12:36:52;;;;;;;4.68;3.40;;;6.80;62.20;;;;;;5114157;28;20024;-74
2022/04/10 12:39:28;;;;;;;5.20;3.60;;;6.80;61.10;;;;;;5113706;28;20035;-74